createdAt,value
2022-08-17T00:00:02.370Z,73.53
2022-08-17T00:01:02.916Z,73.23
2022-08-17T00:02:05.825Z,73.43
2022-08-17T00:03:02.994Z,73.53
2022-08-17T00:04:04.293Z,73.33
2022-08-17T00:05:02.864Z,73.63
2022-08-17T00:06:02.825Z,73.73
2022-08-17T00:07:02.743Z,73.63
2022-08-17T00:08:03.198Z,73.93
2022-08-17T00:09:03.190Z,73.73
2022-08-17T00:10:03.115Z,74.03
2022-08-17T00:11:03.027Z,73.50
2022-08-17T00:12:40.910Z,73.70
2022-08-17T00:13:02.973Z,74.30
2022-08-17T00:14:02.938Z,74.60
2022-08-17T00:15:03.172Z,73.60
2022-08-17T00:16:03.056Z,74.00
2022-08-17T00:17:02.774Z,73.70
2022-08-17T00:18:02.730Z,74.60
2022-08-17T00:19:07.708Z,73.50
2022-08-17T00:20:02.590Z,73.80
2022-08-17T00:21:02.625Z,73.90
2022-08-17T00:22:34.098Z,74.80
2022-08-17T00:23:03.369Z,73.90
2022-08-17T00:24:03.120Z,73.70
2022-08-17T00:25:03.128Z,74.30
2022-08-17T00:26:03.137Z,73.39
2022-08-17T00:27:02.837Z,74.40
2022-08-17T00:28:03.222Z,73.80
2022-08-17T00:29:03.088Z,73.90
2022-08-17T00:30:02.997Z,72.89
2022-08-17T00:31:03.126Z,72.89
2022-08-17T00:33:10.908Z,72.89
2022-08-17T00:33:12.594Z,72.39
2022-08-17T00:34:03.688Z,73.10
2022-08-17T00:35:03.256Z,73.60
2022-08-17T00:36:03.708Z,73.10
2022-08-17T00:37:03.175Z,73.90
2022-08-17T00:38:03.729Z,73.39
2022-08-17T00:39:03.833Z,74.20
2022-08-17T00:40:03.882Z,74.20
2022-08-17T00:41:03.517Z,74.30
2022-08-17T00:42:03.291Z,73.19
2022-08-17T00:43:03.246Z,73.10
2022-08-17T00:44:03.871Z,72.56
2022-08-17T00:45:03.863Z,73.50
2022-08-17T00:46:03.563Z,74.70
2022-08-17T00:47:03.511Z,74.20
2022-08-17T00:48:03.302Z,74.06
2022-08-17T00:49:03.789Z,73.56
2022-08-17T00:50:03.531Z,73.80
2022-08-17T00:51:03.297Z,72.96
2022-08-17T00:52:02.892Z,73.30
2022-08-17T00:53:02.840Z,72.36
2022-08-17T00:54:03.301Z,72.50
2022-08-17T00:55:02.810Z,72.16
2022-08-17T00:56:02.840Z,73.50
2022-08-17T00:57:03.378Z,72.89
2022-08-17T00:58:03.580Z,73.80
2022-08-17T00:59:03.535Z,73.70
2022-08-17T01:00:03.828Z,73.80
2022-08-17T01:01:03.787Z,73.90
2022-08-17T01:02:02.651Z,73.70
2022-08-17T01:03:02.375Z,73.70
2022-08-17T01:04:02.941Z,72.89
2022-08-17T01:05:02.346Z,73.19
2022-08-17T01:06:02.956Z,73.50
2022-08-17T01:07:02.714Z,73.50
2022-08-17T01:08:02.814Z,73.19
2022-08-17T01:09:02.658Z,73.10
2022-08-17T01:10:02.605Z,72.89
2022-08-17T01:11:03.144Z,74.10
2022-08-17T01:12:02.369Z,74.00
2022-08-17T01:13:02.142Z,73.90
2022-08-17T01:14:02.442Z,73.90
2022-08-17T01:15:02.746Z,73.30
2022-08-17T01:16:02.411Z,74.90
2022-08-17T01:17:02.818Z,73.70
2022-08-17T01:18:03.129Z,75.20
2022-08-17T01:19:02.657Z,75.40
2022-08-17T01:20:02.550Z,74.10
2022-08-17T01:21:02.504Z,74.00
2022-08-17T01:22:03.039Z,74.30
2022-08-17T01:23:03.362Z,74.70
2022-08-17T01:24:02.967Z,73.19
2022-08-17T01:25:02.784Z,73.30
2022-08-17T01:26:02.849Z,73.10
2022-08-17T01:27:02.532Z,73.39
2022-08-17T01:28:02.473Z,73.30
2022-08-17T01:29:02.603Z,73.90
2022-08-17T01:30:02.454Z,74.03
2022-08-17T01:31:02.348Z,73.70
2022-08-17T01:32:02.858Z,74.03
2022-08-17T01:33:03.001Z,73.63
2022-08-17T01:34:03.016Z,73.03
2022-08-17T01:35:03.178Z,72.43
2022-08-17T01:36:02.814Z,72.33
2022-08-17T01:37:02.490Z,72.53
2022-08-17T01:38:02.473Z,72.23
2022-08-17T01:39:02.317Z,72.53
2022-08-17T01:40:02.633Z,72.33
2022-08-17T01:41:02.309Z,72.83
2022-08-17T01:42:02.858Z,73.43
2022-08-17T01:43:02.862Z,73.13
2022-08-17T01:44:02.595Z,73.73
2022-08-17T01:45:02.543Z,74.73
2022-08-17T01:46:03.632Z,74.33
2022-08-17T01:47:03.220Z,73.73
2022-08-17T01:48:03.168Z,74.43
2022-08-17T01:49:03.020Z,73.93
2022-08-17T01:50:02.946Z,75.37
2022-08-17T01:51:03.243Z,74.57
2022-08-17T01:52:02.787Z,74.57
2022-08-17T01:53:02.727Z,74.27
2022-08-17T01:54:02.917Z,73.97
2022-08-17T01:55:02.507Z,74.37
2022-08-17T01:56:02.989Z,74.97
2022-08-17T01:57:02.790Z,75.87
2022-08-17T01:58:03.301Z,74.87
2022-08-17T01:59:03.352Z,75.37
2022-08-17T02:00:03.147Z,75.47
2022-08-17T02:01:03.259Z,75.07
2022-08-17T02:02:02.953Z,75.67
2022-08-17T02:03:03.018Z,74.47
2022-08-17T02:04:02.945Z,73.97
2022-08-17T02:05:02.495Z,74.07
2022-08-17T02:06:02.433Z,73.97
2022-08-17T02:07:02.961Z,74.17
2022-08-17T02:08:02.890Z,74.60
2022-08-17T02:09:03.886Z,75.31
2022-08-17T02:10:02.585Z,75.37
2022-08-17T02:11:02.525Z,74.71
2022-08-17T02:12:38.497Z,75.31
2022-08-17T02:13:03.151Z,74.71
2022-08-17T02:14:04.015Z,74.40
2022-08-17T02:15:02.992Z,74.80
2022-08-17T02:16:02.870Z,74.30
2022-08-17T02:17:03.557Z,74.90
2022-08-17T02:18:03.239Z,74.10
2022-08-17T02:19:03.068Z,74.01
2022-08-17T02:20:03.447Z,74.30
2022-08-17T02:21:03.361Z,74.14
2022-08-17T02:22:03.001Z,73.74
2022-08-17T02:23:02.410Z,74.44
2022-08-17T02:24:02.647Z,76.15
2022-08-17T02:25:02.698Z,76.25
2022-08-17T02:26:02.755Z,76.95
2022-08-17T02:27:03.336Z,76.95
2022-08-17T02:28:03.048Z,75.51
2022-08-17T02:29:02.997Z,75.74
2022-08-17T02:30:02.843Z,74.84
2022-08-17T02:31:03.451Z,74.24
2022-08-17T02:32:02.792Z,75.54
2022-08-17T02:33:04.064Z,75.34
2022-08-17T02:34:04.678Z,74.94
2022-08-17T02:35:02.358Z,74.64
2022-08-17T02:36:02.202Z,74.94
2022-08-17T02:37:02.828Z,77.85
2022-08-17T02:38:03.401Z,75.74
2022-08-17T02:39:03.001Z,75.14
2022-08-17T02:40:02.970Z,75.45
2022-08-17T02:41:03.372Z,75.95
2022-08-17T02:42:02.436Z,76.04
2022-08-17T02:43:02.975Z,75.84
2022-08-17T02:44:02.702Z,75.84
2022-08-17T02:45:02.614Z,76.58
2022-08-17T02:46:02.489Z,76.38
2022-08-17T02:47:03.091Z,78.19
2022-08-17T02:48:03.109Z,76.89
2022-08-17T02:49:03.075Z,76.58
2022-08-17T02:50:03.140Z,76.78
2022-08-17T02:51:03.041Z,76.98
2022-08-17T02:52:02.627Z,76.38
2022-08-17T02:53:04.773Z,76.78
2022-08-17T02:54:40.210Z,77.89
2022-08-17T02:55:02.667Z,77.19
2022-08-17T02:56:02.516Z,77.19
2022-08-17T02:57:03.068Z,77.59
2022-08-17T02:58:03.361Z,77.09
2022-08-17T02:59:03.224Z,77.83
2022-08-17T03:00:03.180Z,77.83
2022-08-17T03:01:03.549Z,77.52
2022-08-17T03:02:02.549Z,78.03
2022-08-17T03:03:02.521Z,78.03
2022-08-17T03:04:02.962Z,78.13
2022-08-17T03:05:02.591Z,77.62
2022-08-17T03:06:02.524Z,77.72
2022-08-17T03:07:03.310Z,77.83
2022-08-17T03:08:03.101Z,77.32
2022-08-17T03:09:03.076Z,77.52
2022-08-17T03:10:03.002Z,76.92
2022-08-17T03:11:03.617Z,77.72
2022-08-17T03:12:02.189Z,79.43
2022-08-17T03:13:02.242Z,79.93
2022-08-17T03:14:02.215Z,79.33
2022-08-17T03:15:02.076Z,79.13
2022-08-17T03:16:02.598Z,79.83
2022-08-17T03:17:02.554Z,78.03
2022-08-17T03:18:02.502Z,77.32
2022-08-17T03:19:02.745Z,76.82
2022-08-17T03:20:02.532Z,77.02
2022-08-17T03:21:02.354Z,76.52
2022-08-17T03:22:35.442Z,76.32
2022-08-17T03:23:03.343Z,76.82
2022-08-17T03:24:08.692Z,76.32
2022-08-17T03:25:02.776Z,76.02
2022-08-17T03:26:03.110Z,77.02
2022-08-17T03:27:03.101Z,77.52
2022-08-17T03:28:03.179Z,77.22
2022-08-17T03:29:03.431Z,76.92
2022-08-17T03:30:03.463Z,77.72
2022-08-17T03:31:02.889Z,77.22
2022-08-17T03:32:02.599Z,77.22
2022-08-17T03:33:02.487Z,77.32
2022-08-17T03:34:02.457Z,77.72
2022-08-17T03:35:02.363Z,78.03
2022-08-17T03:36:02.903Z,77.83
2022-08-17T03:37:02.836Z,78.03
2022-08-17T03:38:02.987Z,78.46
2022-08-17T03:39:02.913Z,78.06
2022-08-17T03:40:03.061Z,78.36
2022-08-17T03:41:03.184Z,78.46
2022-08-17T03:42:02.857Z,79.17
2022-08-17T03:43:02.480Z,79.27
2022-08-17T03:44:02.383Z,78.27
2022-08-17T03:45:02.910Z,77.86
2022-08-17T03:46:02.598Z,77.26
2022-08-17T03:47:03.142Z,77.76
2022-08-17T03:48:02.992Z,77.42
2022-08-17T03:49:03.515Z,77.62
2022-08-17T03:50:03.184Z,78.13
2022-08-17T03:51:03.067Z,78.86
2022-08-17T03:52:02.638Z,78.66
2022-08-17T03:53:02.985Z,79.06
2022-08-17T03:54:02.628Z,79.47
2022-08-17T03:55:02.647Z,80.27
2022-08-17T03:56:02.807Z,80.27
2022-08-17T03:57:03.195Z,79.57
2022-08-17T03:58:03.412Z,78.63
2022-08-17T03:59:03.456Z,79.06
2022-08-17T04:00:03.140Z,78.66
2022-08-17T04:01:03.338Z,78.42
2022-08-17T04:02:02.978Z,78.22
2022-08-17T04:03:02.871Z,78.33
2022-08-17T04:04:02.791Z,77.92
2022-08-17T04:05:02.611Z,77.22
2022-08-17T04:06:03.221Z,77.52
2022-08-17T04:07:02.699Z,77.28
2022-08-17T04:08:02.563Z,77.39
2022-08-17T04:09:02.341Z,76.98
2022-08-17T04:10:02.285Z,76.68
2022-08-17T04:11:02.390Z,76.48
2022-08-17T04:12:05.000Z,76.28
2022-08-17T04:13:02.999Z,77.09
2022-08-17T04:14:02.626Z,77.19
2022-08-17T04:15:02.985Z,78.29
2022-08-17T04:16:02.957Z,78.19
2022-08-17T04:17:02.523Z,78.19
2022-08-17T04:18:02.526Z,78.63
2022-08-17T04:19:02.276Z,78.83
2022-08-17T04:20:02.166Z,78.22
2022-08-17T04:21:02.137Z,78.09
2022-08-17T04:22:02.714Z,77.59
2022-08-17T04:23:02.654Z,77.28
2022-08-17T04:24:02.623Z,77.09
2022-08-17T04:25:02.569Z,77.39
2022-08-17T04:26:02.557Z,76.89
2022-08-17T04:27:03.446Z,77.09
2022-08-17T04:28:03.164Z,76.48
2022-08-17T04:29:02.711Z,76.28
2022-08-17T04:30:03.293Z,76.38
2022-08-17T04:31:03.023Z,76.68
2022-08-17T04:32:02.695Z,76.38
2022-08-17T04:33:06.057Z,76.28
2022-08-17T04:34:02.100Z,75.98
2022-08-17T04:35:02.327Z,75.98
2022-08-17T04:36:02.406Z,75.68
2022-08-17T04:37:03.073Z,76.08
2022-08-17T04:38:03.032Z,76.18
2022-08-17T04:39:02.952Z,76.58
2022-08-17T04:40:04.341Z,76.38
2022-08-17T04:41:03.036Z,76.68
2022-08-17T04:42:03.434Z,76.58
2022-08-17T04:43:03.174Z,76.18
2022-08-17T04:44:03.300Z,76.18
2022-08-17T04:45:03.262Z,76.48
2022-08-17T04:46:03.201Z,76.28
2022-08-17T04:47:02.238Z,76.08
2022-08-17T04:48:03.015Z,76.18
2022-08-17T04:49:02.512Z,76.18
2022-08-17T04:50:02.453Z,76.38
2022-08-17T04:51:02.387Z,76.08
2022-08-17T04:52:04.694Z,76.78
2022-08-17T04:53:03.048Z,76.68
2022-08-17T04:54:02.720Z,77.09
2022-08-17T04:55:03.107Z,76.68
2022-08-17T04:56:02.908Z,77.39
2022-08-17T04:57:02.663Z,76.98
2022-08-17T04:58:03.286Z,76.58
2022-08-17T04:59:02.866Z,76.89
2022-08-17T05:00:02.721Z,77.19
2022-08-17T05:01:02.954Z,77.39
2022-08-17T05:02:02.619Z,77.39
2022-08-17T05:03:02.385Z,77.28
2022-08-17T05:04:32.938Z,76.58
2022-08-17T05:05:02.272Z,76.48
2022-08-17T05:06:02.560Z,78.19
2022-08-17T05:07:02.024Z,77.99
2022-08-17T05:08:02.121Z,77.89
2022-08-17T05:09:01.959Z,77.69
2022-08-17T05:10:02.066Z,78.39
2022-08-17T05:11:01.691Z,77.79
2022-08-17T05:12:01.675Z,77.09
2022-08-17T05:13:01.779Z,78.69
2022-08-17T05:14:01.824Z,78.69
2022-08-17T05:15:01.822Z,78.89
2022-08-17T05:16:02.025Z,78.25
2022-08-17T05:17:02.008Z,78.25
2022-08-17T05:18:02.084Z,78.05
2022-08-17T05:19:01.962Z,77.65
2022-08-17T05:20:02.396Z,77.35
2022-08-17T05:21:02.372Z,77.65
2022-08-17T05:22:02.411Z,77.35
2022-08-17T05:23:02.300Z,77.25
2022-08-17T05:24:02.284Z,77.55
2022-08-17T05:25:02.821Z,77.65
2022-08-17T05:26:02.573Z,77.15
2022-08-17T05:27:06.635Z,76.95
2022-08-17T05:28:03.039Z,77.05
2022-08-17T05:29:03.105Z,77.91
2022-08-17T05:30:02.905Z,77.61
2022-08-17T05:31:02.899Z,77.21
2022-08-17T05:32:02.048Z,76.81
2022-08-17T05:33:02.083Z,77.31
2022-08-17T05:34:02.074Z,77.91
2022-08-17T05:35:01.924Z,77.91
2022-08-17T05:36:02.036Z,77.31
2022-08-17T05:37:02.081Z,78.02
2022-08-17T05:38:02.200Z,78.31
2022-08-17T05:39:02.311Z,78.31
2022-08-17T05:40:02.513Z,78.61
2022-08-17T05:41:02.439Z,78.31
2022-08-17T05:42:02.535Z,78.11
2022-08-17T05:43:02.682Z,77.81
2022-08-17T05:44:05.219Z,77.37
2022-08-17T05:45:02.768Z,77.98
2022-08-17T05:46:02.853Z,78.08
2022-08-17T05:47:02.765Z,78.08
2022-08-17T05:48:03.127Z,77.48
2022-08-17T05:49:02.544Z,77.58
2022-08-17T05:50:03.166Z,77.58
2022-08-17T05:51:03.388Z,77.87
2022-08-17T05:52:02.285Z,77.94
2022-08-17T05:53:02.413Z,77.94
2022-08-17T05:54:02.645Z,77.74
2022-08-17T05:55:02.501Z,78.04
2022-08-17T05:56:02.498Z,78.24
2022-08-17T05:57:02.512Z,78.04
2022-08-17T05:58:02.384Z,78.04
2022-08-17T05:59:02.763Z,78.04
2022-08-17T06:00:02.719Z,78.34
2022-08-17T06:01:02.824Z,78.44
2022-08-17T06:02:02.858Z,78.34
2022-08-17T06:03:03.106Z,78.34
2022-08-17T06:04:02.978Z,78.04
2022-08-17T06:05:03.013Z,78.00
2022-08-17T06:06:02.592Z,77.80
2022-08-17T06:07:02.616Z,77.91
2022-08-17T06:08:02.573Z,77.70
2022-08-17T06:09:02.600Z,78.10
2022-08-17T06:10:02.693Z,78.06
2022-08-17T06:11:02.107Z,77.76
2022-08-17T06:12:02.116Z,77.17
2022-08-17T06:13:02.267Z,77.36
2022-08-17T06:14:02.179Z,77.86
2022-08-17T06:15:01.984Z,77.47
2022-08-17T06:16:02.453Z,77.56
2022-08-17T06:17:02.249Z,77.17
2022-08-17T06:18:02.072Z,76.76
2022-08-17T06:19:02.283Z,76.43
2022-08-17T06:20:02.345Z,76.93
2022-08-17T06:21:02.374Z,77.43
2022-08-17T06:22:02.422Z,77.13
2022-08-17T06:23:02.674Z,76.73
2022-08-17T06:24:02.646Z,76.53
2022-08-17T06:25:02.423Z,76.49
2022-08-17T06:26:02.166Z,76.69
2022-08-17T06:27:02.642Z,76.19
2022-08-17T06:28:03.125Z,76.09
2022-08-17T06:29:03.029Z,76.09
2022-08-17T06:30:03.196Z,75.89
2022-08-17T06:31:02.912Z,75.79
2022-08-17T06:32:02.492Z,75.99
2022-08-17T06:33:02.553Z,75.46
2022-08-17T06:34:02.657Z,75.16
2022-08-17T06:35:02.754Z,74.96
2022-08-17T06:36:02.874Z,74.85
2022-08-17T06:37:03.644Z,74.55
2022-08-17T06:38:03.133Z,74.32
2022-08-17T06:39:02.916Z,74.52
2022-08-17T06:40:03.119Z,74.12
2022-08-17T06:41:03.021Z,73.92
2022-08-17T06:42:02.462Z,74.02
2022-08-17T06:43:06.694Z,73.82
2022-08-17T06:44:02.437Z,73.52
2022-08-17T06:45:02.343Z,73.39
2022-08-17T06:46:02.371Z,73.49
2022-08-17T06:47:03.229Z,73.49
2022-08-17T06:48:02.710Z,73.49
2022-08-17T06:49:02.639Z,73.45
2022-08-17T06:50:02.718Z,73.05
2022-08-17T06:51:02.912Z,73.15
2022-08-17T06:52:02.571Z,73.95
2022-08-17T06:53:02.114Z,74.55
2022-08-17T06:54:02.324Z,74.11
2022-08-17T06:55:02.376Z,73.82
2022-08-17T06:56:02.162Z,73.91
2022-08-17T06:57:03.072Z,73.22
2022-08-17T06:58:05.874Z,73.02
2022-08-17T06:59:02.638Z,72.68
2022-08-17T07:00:02.697Z,72.38
2022-08-17T07:01:02.913Z,72.28
2022-08-17T07:02:02.649Z,73.08
2022-08-17T07:03:02.901Z,73.14
2022-08-17T07:04:05.046Z,73.14
2022-08-17T07:05:02.748Z,73.14
2022-08-17T07:06:02.578Z,73.05
2022-08-17T07:07:02.592Z,73.11
2022-08-17T07:08:02.694Z,73.11
2022-08-17T07:09:02.773Z,72.41
2022-08-17T07:10:02.600Z,71.88
2022-08-17T07:11:02.714Z,71.58
2022-08-17T07:12:02.493Z,71.78
2022-08-17T07:13:02.385Z,71.58
2022-08-17T07:14:02.116Z,71.05
2022-08-17T07:15:02.180Z,69.46
2022-08-17T07:16:02.379Z,68.56
2022-08-17T07:17:02.582Z,68.96
2022-08-17T07:18:02.452Z,69.56
2022-08-17T07:19:02.180Z,69.92
2022-08-17T07:20:02.113Z,69.73
2022-08-17T07:21:02.232Z,70.03
2022-08-17T07:22:02.425Z,69.53
2022-08-17T07:23:02.558Z,69.89
2022-08-17T07:24:02.629Z,69.89
2022-08-17T07:25:02.318Z,69.79
2022-08-17T07:26:02.467Z,69.69
2022-08-17T07:27:02.211Z,69.79
2022-08-17T07:28:01.626Z,69.66
2022-08-17T07:29:01.764Z,68.16
2022-08-17T07:30:03.797Z,67.47
2022-08-17T07:31:02.109Z,68.27
2022-08-17T07:32:02.789Z,67.67
2022-08-17T07:33:02.698Z,68.46
2022-08-17T07:34:02.178Z,67.83
2022-08-17T07:35:02.172Z,68.23
2022-08-17T07:36:02.238Z,68.33
2022-08-17T07:37:02.413Z,68.53
2022-08-17T07:38:02.688Z,67.34
2022-08-17T07:39:02.850Z,67.14
2022-08-17T07:40:16.127Z,67.04
2022-08-17T07:41:03.435Z,68.10
2022-08-17T07:42:01.834Z,67.50
2022-08-17T07:43:01.928Z,68.10
2022-08-17T07:44:02.223Z,66.11
2022-08-17T07:45:02.468Z,66.51
2022-08-17T07:46:02.330Z,67.01
2022-08-17T07:47:02.439Z,66.61
2022-08-17T07:48:03.210Z,64.79
2022-08-17T07:49:02.902Z,65.09
2022-08-17T07:50:02.493Z,65.59
2022-08-17T07:51:02.707Z,65.78
2022-08-17T07:52:24.025Z,64.30
2022-08-17T07:53:02.323Z,64.89
2022-08-17T07:54:14.000Z,65.29
2022-08-17T07:55:02.107Z,65.49
2022-08-17T07:56:01.750Z,66.15
2022-08-17T07:57:01.935Z,66.65
2022-08-17T07:58:02.154Z,66.55
2022-08-17T07:59:02.353Z,66.05
2022-08-17T08:00:01.986Z,66.05
2022-08-17T08:01:01.945Z,64.56
2022-08-17T08:02:02.206Z,64.96
2022-08-17T08:03:02.304Z,64.83
2022-08-17T08:04:02.372Z,64.34
2022-08-17T08:05:02.626Z,63.54
2022-08-17T08:06:02.490Z,64.43
2022-08-17T08:07:02.608Z,65.69
2022-08-17T08:08:02.762Z,65.69
2022-08-17T08:09:03.109Z,66.19
2022-08-17T08:10:02.990Z,65.79
2022-08-17T08:11:03.125Z,65.79
2022-08-17T08:12:01.980Z,65.00
2022-08-17T08:13:02.454Z,65.39
2022-08-17T08:14:02.031Z,65.17
2022-08-17T08:15:02.130Z,64.57
2022-08-17T08:16:02.209Z,64.17
2022-08-17T08:17:02.316Z,62.39
2022-08-17T08:18:02.439Z,61.63
2022-08-17T08:19:02.338Z,63.02
2022-08-17T08:20:34.843Z,63.12
2022-08-17T08:21:02.709Z,63.48
2022-08-17T08:22:03.140Z,62.99
2022-08-17T08:23:03.280Z,63.78
2022-08-17T08:24:03.309Z,65.26
2022-08-17T08:25:02.708Z,65.26
2022-08-17T08:26:02.735Z,65.06
2022-08-17T08:27:02.962Z,64.97
2022-08-17T08:28:03.268Z,65.26
2022-08-17T08:29:03.088Z,64.97
2022-08-17T08:30:02.966Z,64.97
2022-08-17T08:31:02.860Z,64.47
2022-08-17T08:32:02.751Z,64.67
2022-08-17T08:33:03.263Z,64.47
2022-08-17T08:34:02.874Z,64.57
2022-08-17T08:35:03.670Z,64.57
2022-08-17T08:36:03.040Z,65.26
2022-08-17T08:37:17.099Z,65.17
2022-08-17T08:38:03.266Z,64.97
2022-08-17T08:39:03.020Z,63.09
2022-08-17T08:40:03.102Z,63.88
2022-08-17T08:41:03.314Z,64.17
2022-08-17T08:42:02.709Z,64.77
2022-08-17T08:43:02.437Z,64.97
2022-08-17T08:44:03.030Z,64.07
2022-08-17T08:45:04.820Z,65.17
2022-08-17T08:46:02.859Z,65.17
2022-08-17T08:47:02.980Z,65.26
2022-08-17T08:48:05.582Z,64.67
2022-08-17T08:49:10.121Z,65.30
2022-08-17T08:50:05.035Z,65.30
2022-08-17T08:51:03.372Z,65.20
2022-08-17T08:52:03.216Z,65.69
2022-08-17T08:53:03.276Z,65.30
2022-08-17T08:54:03.072Z,65.39
2022-08-17T08:55:03.224Z,65.39
2022-08-17T08:56:03.205Z,65.79
2022-08-17T08:57:33.390Z,65.69
2022-08-17T08:58:03.521Z,65.20
2022-08-17T08:59:03.597Z,65.20
2022-08-17T09:00:03.620Z,65.30
2022-08-17T09:01:03.532Z,65.39
2022-08-17T09:02:03.565Z,65.00
2022-08-17T09:03:03.436Z,65.33
2022-08-17T09:04:21.415Z,65.33
2022-08-17T09:05:14.188Z,65.33
2022-08-17T09:06:03.426Z,64.93
2022-08-17T09:07:03.266Z,65.42
2022-08-17T09:08:03.314Z,65.33
2022-08-17T09:09:02.979Z,65.53
2022-08-17T09:10:03.494Z,65.63
2022-08-17T09:11:03.175Z,65.72
2022-08-17T09:12:04.247Z,65.53
2022-08-17T09:13:09.633Z,65.66
2022-08-17T09:14:03.582Z,65.86
2022-08-17T09:15:03.658Z,66.05
2022-08-17T09:16:03.620Z,66.05
2022-08-17T09:17:03.641Z,66.75
2022-08-17T09:19:01.795Z,66.35
2022-08-17T09:19:04.966Z,66.55
2022-08-17T09:20:03.992Z,66.75
2022-08-17T09:21:03.727Z,66.55
2022-08-17T09:22:03.791Z,66.45
2022-08-17T09:23:03.642Z,66.55
2022-08-17T09:24:03.668Z,66.65
2022-08-17T09:25:03.795Z,66.75
2022-08-17T09:26:03.864Z,66.75
2022-08-17T09:27:02.992Z,66.75
2022-08-17T09:28:02.634Z,67.05
2022-08-17T09:29:02.739Z,67.54
2022-08-17T09:30:02.913Z,67.44
2022-08-17T09:31:02.968Z,67.34
2022-08-17T09:32:03.666Z,67.34
2022-08-17T09:33:03.381Z,67.14
2022-08-17T09:34:03.715Z,67.05
2022-08-17T09:35:03.880Z,67.18
2022-08-17T09:36:03.561Z,66.98
2022-08-17T09:37:03.334Z,67.27
2022-08-17T09:38:03.922Z,67.18
2022-08-17T09:39:03.535Z,67.18
2022-08-17T09:40:03.466Z,67.05
2022-08-17T09:41:03.575Z,66.94
2022-08-17T09:42:03.845Z,67.14
2022-08-17T09:43:04.085Z,67.05
2022-08-17T09:44:03.928Z,67.05
2022-08-17T09:45:03.500Z,67.84
2022-08-17T09:46:03.598Z,67.44
2022-08-17T09:47:04.005Z,67.34
2022-08-17T09:48:04.205Z,67.34
2022-08-17T09:49:03.567Z,67.54
2022-08-17T09:50:04.220Z,67.84
2022-08-17T09:51:06.450Z,68.33
2022-08-17T09:52:03.299Z,67.54
2022-08-17T09:53:02.835Z,67.84
2022-08-17T09:54:34.932Z,68.70
2022-08-17T09:55:03.464Z,67.41
2022-08-17T09:56:03.257Z,66.82
2022-08-17T09:57:28.103Z,67.01
2022-08-17T09:58:03.385Z,67.50
2022-08-17T09:59:03.544Z,68.10
2022-08-17T10:00:03.461Z,66.82
2022-08-17T10:01:03.205Z,65.69
2022-08-17T10:02:03.130Z,66.78
2022-08-17T10:03:03.395Z,65.69
2022-08-17T10:04:02.751Z,66.09
2022-08-17T10:05:02.823Z,66.09
2022-08-17T10:06:02.845Z,65.69
2022-08-17T10:07:03.751Z,65.46
2022-08-17T10:08:03.893Z,66.65
2022-08-17T10:09:03.658Z,66.95
2022-08-17T10:10:03.282Z,66.02
2022-08-17T10:11:03.407Z,66.02
2022-08-17T10:12:03.437Z,65.40
2022-08-17T10:13:03.473Z,64.31
2022-08-17T10:14:03.097Z,64.31
2022-08-17T10:15:08.247Z,63.71
2022-08-17T10:16:03.227Z,64.87
2022-08-17T10:17:03.221Z,65.66
2022-08-17T10:18:03.446Z,63.98
2022-08-17T10:19:03.242Z,64.25
2022-08-17T10:20:02.974Z,62.27
2022-08-17T10:21:02.819Z,61.68
2022-08-17T10:22:14.751Z,63.85
2022-08-17T10:23:03.560Z,62.14
2022-08-17T10:24:03.052Z,62.24
2022-08-17T10:25:23.571Z,61.25
2022-08-17T10:26:03.226Z,62.34
2022-08-17T10:27:02.504Z,62.51
2022-08-17T10:28:03.473Z,61.13
2022-08-17T10:29:03.078Z,61.91
2022-08-17T10:30:03.173Z,61.62
2022-08-17T10:31:34.381Z,61.79
2022-08-17T10:32:03.061Z,61.59
2022-08-17T10:33:03.644Z,60.60
2022-08-17T10:34:03.165Z,61.56
2022-08-17T10:35:03.353Z,60.97
2022-08-17T10:36:08.727Z,61.96
2022-08-17T10:37:03.164Z,61.36
2022-08-17T10:38:03.442Z,61.13
2022-08-17T10:39:03.317Z,61.72
2022-08-17T10:40:03.798Z,59.85
2022-08-17T10:41:03.776Z,60.64
2022-08-17T10:42:03.257Z,60.44
2022-08-17T10:43:03.912Z,61.72
2022-08-17T10:44:37.066Z,62.19
2022-08-17T10:45:03.551Z,62.88
2022-08-17T10:46:09.267Z,60.81
2022-08-17T10:47:03.888Z,61.87
2022-08-17T10:48:06.270Z,61.18
2022-08-17T10:49:03.273Z,60.09
2022-08-17T10:50:03.418Z,59.30
2022-08-17T10:51:03.160Z,59.99
2022-08-17T10:52:03.215Z,58.91
2022-08-17T10:53:03.962Z,57.73
2022-08-17T10:54:03.872Z,57.63
2022-08-17T10:55:04.097Z,59.20
2022-08-17T10:56:03.950Z,60.75
2022-08-17T10:57:03.539Z,59.77
2022-08-17T10:58:03.458Z,58.09
2022-08-17T10:59:03.239Z,58.29
2022-08-17T11:00:02.795Z,58.29
2022-08-17T11:01:02.959Z,58.00
2022-08-17T11:02:03.259Z,59.54
2022-08-17T11:03:02.258Z,59.84
2022-08-17T11:04:02.068Z,57.08
2022-08-17T11:05:02.138Z,59.74
2022-08-17T11:06:02.155Z,58.04
2022-08-17T11:07:02.427Z,56.66
2022-08-17T11:08:02.563Z,57.35
2022-08-17T11:09:02.571Z,58.04
2022-08-17T11:10:02.643Z,58.43
2022-08-17T11:11:02.296Z,58.62
2022-08-17T11:12:02.514Z,57.03
2022-08-17T11:13:02.732Z,56.83
2022-08-17T11:14:02.362Z,57.03
2022-08-17T11:15:02.437Z,55.58
2022-08-17T11:16:07.643Z,56.37
2022-08-17T11:17:02.421Z,56.56
2022-08-17T11:18:02.347Z,55.48
2022-08-17T11:19:02.300Z,55.87
2022-08-17T11:20:01.812Z,57.28
2022-08-17T11:21:01.972Z,57.64
2022-08-17T11:22:02.261Z,57.57
2022-08-17T11:23:02.458Z,56.88
2022-08-17T11:24:01.890Z,57.28
2022-08-17T11:25:02.157Z,56.29
2022-08-17T11:26:02.074Z,56.69
2022-08-17T11:27:02.138Z,56.52
2022-08-17T11:28:03.449Z,57.50
2022-08-17T11:29:02.684Z,57.40
2022-08-17T11:30:03.182Z,55.83
2022-08-17T11:31:03.429Z,56.71
2022-08-17T11:32:03.296Z,58.02
2022-08-17T11:33:03.060Z,57.63
2022-08-17T11:34:02.785Z,57.53
2022-08-17T11:35:02.963Z,56.35
2022-08-17T11:36:03.165Z,57.73
2022-08-17T11:37:03.143Z,57.73
2022-08-17T11:38:03.478Z,58.91
2022-08-17T11:39:02.779Z,59.50
2022-08-17T11:40:02.922Z,57.31
2022-08-17T11:41:03.182Z,58.98
2022-08-17T11:42:03.323Z,59.47
2022-08-17T11:43:03.498Z,58.78
2022-08-17T11:44:03.559Z,58.00
2022-08-17T11:45:03.435Z,57.50
2022-08-17T11:46:03.018Z,57.77
2022-08-17T11:47:03.145Z,56.52
2022-08-17T11:48:26.662Z,57.01
2022-08-17T11:49:02.653Z,56.52
2022-08-17T11:50:02.897Z,58.59
2022-08-17T11:51:02.593Z,58.85
2022-08-17T11:52:02.707Z,57.97
2022-08-17T11:53:03.490Z,56.88
2022-08-17T11:54:30.985Z,58.36
2022-08-17T11:55:18.006Z,58.92
2022-08-17T11:56:03.027Z,58.23
2022-08-17T11:57:03.380Z,58.04
2022-08-17T11:58:02.982Z,57.94
2022-08-17T11:59:03.220Z,56.73
2022-08-17T12:00:02.971Z,57.22
2022-08-17T12:01:03.107Z,56.04
2022-08-17T12:02:02.686Z,57.22
2022-08-17T12:03:02.206Z,57.71
2022-08-17T12:04:02.506Z,58.18
2022-08-17T12:05:02.541Z,57.59
2022-08-17T12:06:02.649Z,54.74
2022-08-17T12:07:02.756Z,54.54
2022-08-17T12:08:02.738Z,56.21
2022-08-17T12:09:02.833Z,56.68
2022-08-17T12:10:02.753Z,55.99
2022-08-17T12:11:03.055Z,54.52
2022-08-17T12:12:13.163Z,55.00
2022-08-17T12:13:02.723Z,54.81
2022-08-17T12:14:02.784Z,55.69
2022-08-17T12:15:11.824Z,55.30
2022-08-17T12:16:02.978Z,55.49
2022-08-17T12:17:03.700Z,55.49
2022-08-17T12:18:02.863Z,56.35
2022-08-17T12:19:03.300Z,57.24
2022-08-17T12:20:03.537Z,56.35
2022-08-17T12:21:02.954Z,56.32
2022-08-17T12:22:03.531Z,56.82
2022-08-17T12:23:02.586Z,54.85
2022-08-17T12:24:02.522Z,56.01
2022-08-17T12:25:02.688Z,54.04
2022-08-17T12:26:02.763Z,54.44
2022-08-17T12:27:02.836Z,54.50
2022-08-17T12:28:06.666Z,54.41
2022-08-17T12:29:03.281Z,55.00
2022-08-17T12:30:03.093Z,54.90
2022-08-17T12:31:03.603Z,53.53
2022-08-17T12:32:03.620Z,53.92
2022-08-17T12:33:02.598Z,54.50
2022-08-17T12:34:02.851Z,53.43
2022-08-17T12:35:02.554Z,51.56
2022-08-17T12:36:02.811Z,51.56
2022-08-17T12:37:02.939Z,52.84
2022-08-17T12:38:03.544Z,53.23
2022-08-17T12:39:12.899Z,52.25
2022-08-17T12:40:03.658Z,52.06
2022-08-17T12:41:03.664Z,52.45
2022-08-17T12:42:03.128Z,51.25
2022-08-17T12:43:02.636Z,52.23
2022-08-17T12:44:02.786Z,52.72
2022-08-17T12:45:02.899Z,55.24
2022-08-17T12:46:14.902Z,51.81
2022-08-17T12:47:02.432Z,50.12
2022-08-17T12:48:02.667Z,51.32
2022-08-17T12:49:02.529Z,51.03
2022-08-17T12:50:02.558Z,51.68
2022-08-17T12:51:02.766Z,50.32
2022-08-17T12:52:02.993Z,52.56